Time;durP1;ratioP1;P1;durP2;ratioP2;P2;SDS_P1;SDS_P2;PMS_P1;PMS_P2;Temp;Humidity;BMP_temperature;BMP_pressure;BME280_temperature;BME280_humidity;BME280_pressure;Samples;Min_cycle;Max_cycle;Signal;HPM_P1;HPM_P2
2022/03/14 00:00:08;;;;;;;29.77;12.23;;;;;;;-0.99;68.94;102776.31;1832416;77;21077;-63
2022/03/14 00:02:39;;;;;;;30.88;12.65;;;;;;;-0.93;68.86;102773.97;1802636;79;21121;-63
2022/03/14 00:05:09;;;;;;;29.60;12.40;;;;;;;-0.94;68.82;102773.90;1843028;77;21054;-67
2022/03/14 00:07:39;;;;;;;27.48;12.33;;;;;;;-0.95;68.91;102771.73;1840544;77;21166;-73
2022/03/14 00:10:08;;;;;;;26.93;12.80;;;;;;;-0.93;68.93;102770.51;1805367;79;21396;-67
2022/03/14 00:12:37;;;;;;;27.17;12.37;;;;;;;-0.91;68.85;102776.20;1793577;79;21295;-63
2022/03/14 00:15:11;;;;;;;34.60;13.88;;;;;;;-0.91;68.84;102774.91;1794349;79;21061;-71
2022/03/14 00:17:38;;;;;;;31.05;13.38;;;;;;;-0.93;68.93;102766.21;1789321;79;21562;-63
2022/03/14 00:20:12;;;;;;;27.40;13.43;;;;;;;-0.89;68.89;102771.09;1800604;79;21457;-68
2022/03/14 00:22:41;;;;;;;28.20;13.25;;;;;;;-0.87;68.75;102773.34;1798388;79;21495;-65
2022/03/14 00:25:11;;;;;;;33.00;13.62;;;;;;;-0.87;68.71;102771.63;1789539;80;21511;-63
2022/03/14 00:27:39;;;;;;;32.08;13.53;;;;;;;-0.88;68.72;102775.05;1801773;79;21462;-62
2022/03/14 00:30:13;;;;;;;24.80;12.93;;;;;;;-0.96;68.94;102769.95;1818693;79;21152;-64
2022/03/14 00:32:42;;;;;;;;;;;;;;;-1.00;69.11;102773.23;1815516;78;21074;-66
2022/03/14 00:35:12;;;;;;;28.23;13.00;;;;;;;-0.97;69.09;102766.49;1810105;79;20464;-63
2022/03/14 00:37:41;;;;;;;29.00;12.60;;;;;;;-1.00;69.08;102773.23;1833819;78;21517;-63
2022/03/14 00:40:10;;;;;;;30.30;12.63;;;;;;;-1.03;69.23;102774.42;1840235;78;21063;-65
2022/03/14 00:42:39;;;;;;;29.75;13.30;;;;;;;-1.01;69.27;102775.37;1823092;78;21125;-60
2022/03/14 00:45:09;;;;;;;25.00;12.35;;;;;;;-1.05;69.35;102774.75;1810266;79;21067;-62
2022/03/14 00:47:38;;;;;;;31.45;13.08;;;;;;;-1.04;69.26;102777.81;1810237;78;21078;-60
2022/03/14 00:50:08;;;;;;;21.77;10.40;;;;;;;-0.96;69.03;102782.88;1810162;79;21058;-60
2022/03/14 00:52:38;;;;;;;27.30;11.93;;;;;;;-0.97;69.03;102782.43;1810264;79;21070;-62
2022/03/14 00:55:07;;;;;;;26.50;12.63;;;;;;;-1.01;69.24;102781.84;1810124;79;21098;-62
2022/03/14 00:57:36;;;;;;;31.73;12.82;;;;;;;-1.03;69.33;102787.36;1823406;78;21043;-72
2022/03/14 01:00:06;;;;;;;25.68;11.53;;;;;;;-1.04;69.47;102786.87;1825721;78;21067;-61
2022/03/14 01:02:35;;;;;;;27.48;12.78;;;;;;;-1.03;69.61;102788.65;1832391;77;21463;-60
2022/03/14 01:05:04;;;;;;;25.77;12.80;;;;;;;-0.99;69.52;102791.83;1823837;79;21153;-61
2022/03/14 01:07:34;;;;;;;27.13;11.60;;;;;;;-0.96;69.53;102797.11;1813624;78;21046;-60
2022/03/14 01:10:05;;;;;;;21.48;10.23;;;;;;;-0.96;69.53;102795.81;1810056;79;21514;-61
2022/03/14 01:12:33;;;;;;;29.57;12.68;;;;;;;-0.97;69.60;102800.11;1809731;79;21492;-60
2022/03/14 01:15:02;;;;;;;29.67;13.72;;;;;;;-1.00;69.66;102802.59;1810049;79;21052;-63
2022/03/14 01:17:31;;;;;;;20.60;9.93;;;;;;;-1.03;69.85;102802.87;1810249;78;21557;-64
2022/03/14 01:20:00;;;;;;;28.23;12.35;;;;;;;-1.04;69.90;102808.84;1827336;78;21118;-62
2022/03/14 01:22:28;;;;;;;29.35;13.15;;;;;;;-1.07;69.96;102803.16;1829330;78;21117;-62
2022/03/14 01:24:57;;;;;;;27.02;12.80;;;;;;;-1.06;70.03;102814.37;1840006;78;21059;-62
2022/03/14 01:27:26;;;;;;;31.00;11.97;;;;;;;-0.99;69.91;102824.16;1831063;78;21052;-61
2022/03/14 01:29:55;;;;;;;25.17;13.00;;;;;;;-0.93;69.71;102818.36;1823796;79;21194;-63
2022/03/14 01:32:24;;;;;;;23.38;12.65;;;;;;;-0.93;69.62;102821.81;1816250;78;21633;-61
2022/03/14 01:34:53;;;;;;;30.75;13.25;;;;;;;-0.95;69.70;102820.88;1810081;79;21082;-60
2022/03/14 01:37:22;;;;;;;26.62;12.68;;;;;;;-0.93;69.68;102824.40;1828367;78;21197;-60
2022/03/14 01:39:50;;;;;;;27.70;12.93;;;;;;;-0.98;69.80;102822.02;1840174;78;21059;-63
2022/03/14 01:42:20;;;;;;;34.55;13.43;;;;;;;-0.99;69.84;102837.09;1835984;78;21117;-62
2022/03/14 01:44:49;;;;;;;30.23;13.78;;;;;;;-1.01;69.79;102840.02;1839743;78;21479;-63
2022/03/14 01:47:18;;;;;;;26.68;12.73;;;;;;;-1.04;69.85;102837.29;1840196;78;21490;-62
2022/03/14 01:49:48;;;;;;;31.77;13.90;;;;;;;-1.07;69.95;102843.23;1840049;78;21071;-62
2022/03/14 01:52:17;;;;;;;31.80;14.50;;;;;;;-1.12;70.09;102841.27;1840193;78;21079;-65
2022/03/14 01:54:46;;;;;;;32.17;12.43;;;;;;;-1.12;70.16;102843.85;1840109;78;21126;-66
2022/03/14 01:57:15;;;;;;;30.35;15.03;;;;;;;-1.13;70.17;102844.66;1840064;78;21545;-65
2022/03/14 01:59:46;;;;;;;29.70;15.85;;;;;;;-1.08;70.14;102849.63;1840157;78;21078;-65
2022/03/14 02:02:16;;;;;;;30.75;13.03;;;;;;;-1.07;70.10;102847.49;1839956;78;21181;-65
2022/03/14 02:04:47;;;;;;;32.73;14.90;;;;;;;-1.09;70.16;102852.59;1839954;78;21119;-67
2022/03/14 02:07:16;;;;;;;34.20;16.93;;;;;;;-1.10;70.26;102845.67;1819887;78;21502;-63
2022/03/14 02:09:45;;;;;;;34.67;15.55;;;;;;;-1.06;70.29;102853.16;1813401;77;21581;-62
2022/03/14 02:12:14;;;;;;;32.28;15.03;;;;;;;-1.03;70.31;102852.00;1820270;77;21600;-61
2022/03/14 02:14:43;;;;;;;35.10;16.52;;;;;;;-1.02;70.31;102851.16;1825266;77;21141;-60
2022/03/14 02:17:15;;;;;;;36.90;16.60;;;;;;;-1.05;70.38;102854.91;1817074;77;21573;-60
2022/03/14 02:19:44;;;;;;;40.43;16.57;;;;;;;-1.04;70.47;102857.98;1826814;77;21103;-60
2022/03/14 02:22:14;;;;;;;38.25;17.57;;;;;;;-1.01;70.55;102853.83;1835784;77;21510;-61
2022/03/14 02:24:45;;;;;;;40.00;16.57;;;;;;;-0.93;70.44;102859.31;1840261;78;21485;-61
2022/03/14 02:27:15;;;;;;;33.45;16.10;;;;;;;-0.90;70.36;102854.70;1840174;78;21055;-60
2022/03/14 02:29:44;;;;;;;35.23;15.95;;;;;;;-0.92;70.37;102858.51;1837804;78;21133;-59
2022/03/14 02:32:13;;;;;;;35.80;16.32;;;;;;;-0.93;70.52;102861.90;1840233;78;21043;-61
2022/03/14 02:34:42;;;;;;;30.97;15.25;;;;;;;-0.91;70.54;102862.84;1840042;77;21166;-60
2022/03/14 02:37:12;;;;;;;36.15;15.98;;;;;;;-0.90;70.53;102859.45;1840142;78;21493;-61
2022/03/14 02:39:40;;;;;;;34.03;16.10;;;;;;;-0.90;70.58;102862.04;1840241;78;21095;-61
2022/03/14 02:42:10;;;;;;;30.50;14.40;;;;;;;-0.88;70.44;102857.81;1840145;78;21510;-59
2022/03/14 02:44:41;;;;;;;37.10;16.40;;;;;;;-0.84;70.25;102873.92;1840127;78;21031;-59
2022/03/14 02:47:10;;;;;;;27.85;13.60;;;;;;;-0.79;70.04;102871.55;1840085;78;21071;-59
2022/03/14 02:49:39;;;;;;;29.37;13.72;;;;;;;-0.80;69.96;102871.94;1840123;78;21470;-61
2022/03/14 02:52:08;;;;;;;32.08;14.87;;;;;;;-0.77;69.81;102877.67;1840145;78;21047;-60
2022/03/14 02:54:37;;;;;;;29.50;13.78;;;;;;;-0.78;69.75;102883.23;1839302;78;21086;-60
2022/03/14 02:57:08;;;;;;;30.25;14.07;;;;;;;-0.82;69.77;102881.76;1840088;78;21177;-62
2022/03/14 02:59:37;;;;;;;26.95;12.10;;;;;;;-0.85;69.77;102882.52;1840104;78;21031;-62
2022/03/14 03:02:06;;;;;;;31.00;11.88;;;;;;;-0.82;69.66;102885.64;1840152;78;21058;-62
2022/03/14 03:04:35;;;;;;;28.55;13.48;;;;;;;-0.83;69.68;102891.61;1837551;78;21126;-62
2022/03/14 03:07:04;;;;;;;29.87;13.28;;;;;;;-0.87;69.72;102890.59;1840019;78;21079;-63
2022/03/14 03:09:33;;;;;;;27.70;12.98;;;;;;;-0.89;69.83;102893.53;1840094;78;21071;-62
2022/03/14 03:12:02;;;;;;;29.63;12.88;;;;;;;-0.87;69.81;102897.06;1840118;78;21125;-61
2022/03/14 03:14:32;;;;;;;17.10;7.50;;;;;;;-0.84;69.77;102898.50;1839451;78;21111;-61
2022/03/14 03:17:01;;;;;;;26.52;11.33;;;;;;;-0.88;69.82;102897.03;1840104;78;21035;-62
2022/03/14 03:19:29;;;;;;;23.32;9.95;;;;;;;-0.89;69.74;102895.25;1828656;78;21039;-61
2022/03/14 03:21:58;;;;;;;27.42;12.28;;;;;;;-0.87;69.67;102903.53;1820124;78;21027;-61
2022/03/14 03:24:27;;;;;;;23.00;10.18;;;;;;;-0.87;69.72;102902.66;1840099;78;21059;-61
2022/03/14 03:26:56;;;;;;;19.12;10.25;;;;;;;-0.88;69.77;102901.78;1840084;78;21213;-62
2022/03/14 03:29:25;;;;;;;17.32;7.35;;;;;;;-0.86;69.76;102903.15;1839757;78;21493;-61
2022/03/14 03:31:54;;;;;;;21.95;10.93;;;;;;;-0.82;69.70;102912.38;1840009;78;21533;-64
2022/03/14 03:34:22;;;;;;;24.10;9.18;;;;;;;-0.80;69.68;102915.03;1839748;77;21064;-64
2022/03/14 03:36:51;;;;;;;22.48;10.98;;;;;;;-0.79;69.70;102916.40;1840076;77;21074;-65
2022/03/14 03:39:20;;;;;;;21.82;10.25;;;;;;;-0.79;69.77;102912.52;1840132;78;21007;-65
2022/03/14 03:41:48;;;;;;;23.05;10.68;;;;;;;-0.81;69.89;102916.75;1840038;78;21028;-65
2022/03/14 03:44:17;;;;;;;22.15;11.38;;;;;;;-0.79;69.91;102915.11;1840063;78;21137;-66
2022/03/14 03:46:46;;;;;;;23.02;8.43;;;;;;;-0.78;69.99;102921.16;1840015;78;21161;-66
2022/03/14 03:49:15;;;;;;;22.67;10.50;;;;;;;-0.80;69.99;102923.67;1840283;78;21158;-66
2022/03/14 03:51:45;;;;;;;21.33;10.90;;;;;;;-0.80;69.98;102919.79;1840192;78;21166;-66
2022/03/14 03:54:14;;;;;;;21.20;11.15;;;;;;;-0.82;70.08;102922.72;1829158;78;21040;-64
2022/03/14 03:56:42;;;;;;;18.92;8.93;;;;;;;-0.83;70.19;102926.53;1810207;79;21125;-67
2022/03/14 03:59:11;;;;;;;21.10;10.43;;;;;;;-0.83;70.26;102928.73;1836726;78;21510;-64
2022/03/14 04:01:40;;;;;;;17.25;7.80;;;;;;;-0.81;70.19;102933.98;1840175;78;21105;-64
2022/03/14 04:04:09;;;;;;;19.23;9.83;;;;;;;-0.80;70.13;102934.02;1834334;78;21544;-63
2022/03/14 04:06:39;;;;;;;22.25;10.80;;;;;;;-0.80;70.05;102935.31;1810137;79;21035;-63
2022/03/14 04:09:09;;;;;;;25.85;9.65;;;;;;;-0.81;70.00;102929.69;1810155;79;21060;-62
2022/03/14 04:11:43;;;;;;;22.85;11.35;;;;;;;-0.81;70.00;102935.27;1810129;79;21036;-62
2022/03/14 04:14:10;;;;;;;25.32;10.28;;;;;;;-0.81;69.94;102930.98;1809509;78;21133;-62
2022/03/14 04:16:40;;;;;;;21.65;9.28;;;;;;;-0.77;69.89;102937.17;1810209;79;21101;-63
2022/03/14 04:19:09;;;;;;;20.00;8.70;;;;;;;-0.76;69.83;102940.20;1812224;78;21105;-61
2022/03/14 04:21:38;;;;;;;19.00;9.18;;;;;;;-0.76;69.79;102940.62;1810207;79;21109;-61
2022/03/14 04:24:07;;;;;;;11.18;5.80;;;;;;;-0.78;69.78;102942.72;1810053;79;21055;-63
2022/03/14 04:26:36;;;;;;;20.95;8.98;;;;;;;-0.78;69.73;102944.02;1810151;79;21067;-61
2022/03/14 04:29:05;;;;;;;25.02;12.15;;;;;;;-0.79;69.74;102948.73;1810110;79;21044;-63
2022/03/14 04:31:34;;;;;;;23.70;11.03;;;;;;;-0.76;69.79;102952.27;1838310;78;21069;-63
2022/03/14 04:34:03;;;;;;;21.07;9.83;;;;;;;-0.75;69.79;102960.11;1840150;78;21059;-60
2022/03/14 04:36:32;;;;;;;23.42;10.45;;;;;;;-0.73;69.79;102962.77;1840229;78;21085;-64
2022/03/14 04:39:02;;;;;;;22.55;10.35;;;;;;;-0.72;69.75;102964.52;1840325;78;21134;-65
2022/03/14 04:41:37;;;;;;;19.52;8.60;;;;;;;-0.69;69.71;102972.42;1837985;78;21071;-63
2022/03/14 04:44:01;;;;;;;17.12;9.28;;;;;;;-0.64;69.64;102978.68;1839445;78;21075;-65
2022/03/14 04:46:30;;;;;;;20.62;10.00;;;;;;;-0.58;69.61;102972.47;1840149;78;21137;-65
2022/03/14 04:48:59;;;;;;;18.25;9.08;;;;;;;-0.57;69.59;102976.84;1840146;78;21075;-64
2022/03/14 04:51:28;;;;;;;22.48;9.55;;;;;;;-0.54;69.57;102982.54;1838097;78;21118;-64
2022/03/14 04:53:56;;;;;;;15.53;8.20;;;;;;;-0.49;69.49;102981.91;1840179;78;21544;-67
2022/03/14 04:56:26;;;;;;;18.40;9.03;;;;;;;-0.45;69.37;102989.41;1827615;78;21111;-65
2022/03/14 04:58:54;;;;;;;21.85;9.10;;;;;;;-0.41;69.29;102989.61;1826719;78;21544;-64
2022/03/14 05:01:23;;;;;;;20.55;9.33;;;;;;;-0.33;69.20;102996.78;1826867;78;21055;-64
2022/03/14 05:03:52;;;;;;;19.35;9.83;;;;;;;-0.28;69.09;102993.98;1826661;78;21546;-65
2022/03/14 05:06:21;;;;;;;16.35;7.87;;;;;;;-0.20;69.03;102997.80;1815810;78;21168;-62
2022/03/14 05:08:50;;;;;;;14.98;7.03;;;;;;;-0.25;69.04;103000.60;1828873;78;21035;-63
2022/03/14 05:11:19;;;;;;;17.32;7.28;;;;;;;-0.23;69.01;103002.42;1840114;78;21063;-63
2022/03/14 05:13:48;;;;;;;20.77;8.43;;;;;;;-0.26;68.87;103005.29;1840265;78;21482;-60
2022/03/14 05:16:17;;;;;;;18.50;7.67;;;;;;;-0.25;68.88;103012.25;1840086;78;21556;-63
2022/03/14 05:18:45;;;;;;;19.05;8.58;;;;;;;-0.17;68.83;103018.62;1840156;78;21043;-60
2022/03/14 05:21:15;;;;;;;17.65;7.53;;;;;;;-0.07;68.74;103013.02;1840159;78;21063;-62
2022/03/14 05:23:44;;;;;;;18.40;7.75;;;;;;;-0.04;68.63;103009.27;1840146;78;21043;-62
2022/03/14 05:26:13;;;;;;;14.35;7.87;;;;;;;0.03;68.55;103015.56;1840299;78;21125;-61
2022/03/14 05:28:42;;;;;;;17.07;9.08;;;;;;;0.03;68.35;103016.86;1835915;78;21130;-62
2022/03/14 05:31:10;;;;;;;21.25;9.15;;;;;;;0.04;68.33;103017.73;1810115;78;21478;-61
2022/03/14 05:33:39;;;;;;;18.55;8.10;;;;;;;0.08;68.40;103014.05;1810087;79;21572;-60
2022/03/14 05:36:08;;;;;;;15.68;8.18;;;;;;;0.12;68.21;103017.23;1810079;78;21103;-60
2022/03/14 05:38:37;;;;;;;22.27;8.43;;;;;;;0.19;68.09;103020.97;1810123;79;21120;-60
2022/03/14 05:41:05;;;;;;;19.67;7.83;;;;;;;0.25;68.03;103022.92;1810159;79;21063;-62
2022/03/14 05:43:37;;;;;;;15.25;6.60;;;;;;;0.34;67.86;103025.88;1818149;78;21177;-60
2022/03/14 05:46:09;;;;;;;15.48;7.90;;;;;;;0.38;67.69;103026.05;1840170;78;21055;-59
2022/03/14 05:48:37;;;;;;;22.62;8.85;;;;;;;0.53;67.49;103030.08;1826823;78;21517;-60
2022/03/14 05:51:10;;;;;;;18.30;8.68;;;;;;;0.73;67.40;103030.85;1810297;79;21067;-60
2022/03/14 05:53:38;;;;;;;20.62;8.40;;;;;;;0.88;67.14;103027.95;1811519;78;21047;-63
2022/03/14 05:56:07;;;;;;;12.95;6.70;;;;;;;1.04;66.91;103030.30;1840119;78;21106;-59
2022/03/14 05:58:36;;;;;;;16.52;6.80;;;;;;;1.23;66.75;103028.38;1840132;78;21031;-59
2022/03/14 06:01:04;;;;;;;17.05;8.23;;;;;;;1.39;66.37;103033.30;1840353;78;21137;-60
2022/03/14 06:03:33;;;;;;;16.35;7.42;;;;;;;1.50;65.97;103034.55;1839910;78;21552;-60
2022/03/14 06:06:02;;;;;;;17.10;8.18;;;;;;;1.61;65.71;103037.95;1840144;78;21031;-62
2022/03/14 06:08:32;;;;;;;14.70;6.72;;;;;;;1.76;65.70;103033.28;1840023;78;21498;-60
2022/03/14 06:11:01;;;;;;;12.55;6.55;;;;;;;1.84;65.56;103035.70;1840133;77;21087;-62
2022/03/14 06:13:30;;;;;;;15.05;7.95;;;;;;;1.81;65.25;103038.22;1816489;78;21145;-59
2022/03/14 06:15:59;;;;;;;17.70;7.50;;;;;;;1.85;64.95;103034.02;1803886;79;21165;-62
2022/03/14 06:18:29;;;;;;;12.30;5.72;;;;;;;1.99;64.83;103037.93;1804001;79;21107;-60
2022/03/14 06:20:58;;;;;;;12.90;6.50;;;;;;;2.03;64.10;103032.42;1803781;79;21631;-62
2022/03/14 06:23:27;;;;;;;15.38;6.72;;;;;;;2.10;63.97;103039.59;1808410;78;21520;-60
2022/03/14 06:25:56;;;;;;;11.08;5.37;;;;;;;2.19;63.62;103033.39;1810209;79;21518;-60
2022/03/14 06:28:25;;;;;;;10.55;5.55;;;;;;;2.21;63.00;103030.84;1810097;79;21149;-60
2022/03/14 06:30:55;;;;;;;10.35;5.10;;;;;;;2.30;62.96;103035.92;1812075;78;21074;-62
2022/03/14 06:33:24;;;;;;;14.28;7.20;;;;;;;2.48;62.65;103029.55;1827280;78;21047;-62
2022/03/14 06:35:53;;;;;;;15.58;8.13;;;;;;;2.68;62.27;103031.05;1840119;78;21502;-61
2022/03/14 06:38:22;;;;;;;15.43;6.35;;;;;;;2.89;61.73;103032.52;1833229;78;21064;-60
2022/03/14 06:40:54;;;;;;;14.28;6.20;;;;;;;3.07;61.47;103026.55;1834281;77;21530;-62
2022/03/14 06:43:22;;;;;;;14.23;5.62;;;;;;;3.22;60.81;103028.70;1832760;78;21055;-60
2022/03/14 06:45:51;;;;;;;12.37;6.50;;;;;;;3.37;60.18;103023.45;1832834;78;21055;-62
2022/03/14 06:48:20;;;;;;;7.15;4.53;;;;;;;3.61;59.56;103020.63;1832792;78;21067;-60
2022/03/14 06:50:49;;;;;;;11.53;5.67;;;;;;;4.06;59.15;103022.66;1843868;77;21520;-60
2022/03/14 06:53:18;;;;;;;13.48;5.95;;;;;;;4.50;58.56;103026.75;1855522;77;21130;-60
2022/03/14 06:55:47;;;;;;;10.08;5.67;;;;;;;4.87;57.52;103024.95;1855515;77;21071;-61
2022/03/14 06:58:16;;;;;;;11.43;5.60;;;;;;;5.17;56.23;103026.42;1855503;77;21465;-60
2022/03/14 07:00:44;;;;;;;10.43;6.03;;;;;;;5.30;55.97;103028.42;1853988;77;21124;-60
2022/03/14 07:03:14;;;;;;;14.58;6.62;;;;;;;5.25;55.60;103024.83;1855715;77;21055;-62
2022/03/14 07:05:43;;;;;;;12.28;6.25;;;;;;;5.30;55.64;103023.20;1855563;77;21128;-62
2022/03/14 07:08:12;;;;;;;9.93;5.72;;;;;;;5.50;55.34;103022.70;1855540;77;21149;-60
2022/03/14 07:10:40;;;;;;;11.28;6.03;;;;;;;5.65;54.99;103019.05;1855491;77;21091;-61
2022/03/14 07:13:09;;;;;;;15.20;7.35;;;;;;;5.71;54.10;103020.46;1855401;77;21150;-64
2022/03/14 07:15:38;;;;;;;14.43;7.20;;;;;;;5.89;54.00;103025.58;1854067;77;21179;-63
2022/03/14 07:18:07;;;;;;;15.63;6.90;;;;;;;5.91;53.63;103019.94;1855511;77;21546;-65
2022/03/14 07:20:36;;;;;;;11.57;5.40;;;;;;;6.07;52.76;103015.86;1855724;77;21027;-63
2022/03/14 07:23:06;;;;;;;13.15;6.37;;;;;;;6.53;52.32;103006.11;1855813;77;21133;-64
2022/03/14 07:25:38;;;;;;;13.65;6.50;;;;;;;7.30;51.70;103004.43;1853849;77;21149;-64
2022/03/14 07:28:10;;;;;;;12.78;6.67;;;;;;;7.92;50.47;102998.03;1855620;77;21047;-64
2022/03/14 07:30:39;;;;;;;13.00;6.00;;;;;;;8.81;49.62;102999.93;1855668;77;21107;-64
2022/03/14 07:33:08;;;;;;;11.85;5.65;;;;;;;9.63;48.18;102991.84;1855624;77;21584;-62
2022/03/14 07:35:37;;;;;;;12.58;6.08;;;;;;;9.09;47.33;103002.66;1855573;77;21059;-61
2022/03/14 07:38:07;;;;;;;9.18;5.20;;;;;;;9.17;46.96;103002.27;1833639;77;21087;-62
2022/03/14 07:40:36;;;;;;;14.30;6.60;;;;;;;8.71;47.21;102996.84;1826811;78;21591;-61
2022/03/14 07:43:05;;;;;;;11.38;6.75;;;;;;;8.41;45.70;103000.13;1826935;78;21084;-62
2022/03/14 07:45:34;;;;;;;10.35;6.30;;;;;;;8.29;46.12;102994.38;1826814;78;21150;-61
2022/03/14 07:48:03;;;;;;;10.60;6.08;;;;;;;8.54;45.82;102990.60;1833559;78;21501;-62
2022/03/14 07:50:35;;;;;;;13.38;6.97;;;;;;;9.14;45.56;102989.11;1840060;78;21059;-62
2022/03/14 07:53:03;;;;;;;15.40;7.00;;;;;;;8.86;45.59;102989.02;1840288;78;21051;-63
2022/03/14 07:55:32;;;;;;;14.45;7.15;;;;;;;8.27;46.07;102988.23;1840186;78;21027;-61
2022/03/14 07:58:01;;;;;;;11.08;6.40;;;;;;;7.82;46.65;102988.32;1830960;77;21059;-63
2022/03/14 08:00:30;;;;;;;11.65;6.80;;;;;;;7.64;46.29;102988.62;1810361;79;21560;-63
2022/03/14 08:02:58;;;;;;;10.53;6.42;;;;;;;7.75;46.38;102982.16;1810171;79;21114;-63
2022/03/14 08:05:27;;;;;;;13.13;7.72;;;;;;;8.07;45.96;102981.09;1826098;78;21067;-62
2022/03/14 08:07:57;;;;;;;11.85;6.90;;;;;;;8.19;44.99;102982.04;1840194;78;21493;-61
2022/03/14 08:10:26;;;;;;;13.43;6.03;;;;;;;8.97;43.64;102983.80;1840222;77;21667;-64
2022/03/14 08:12:57;;;;;;;12.30;6.20;;;;;;;8.92;44.01;102981.59;1840017;78;21511;-64
2022/03/14 08:15:28;;;;;;;13.10;7.70;;;;;;;8.83;44.17;102975.86;1840307;78;21486;-62
2022/03/14 08:17:59;;;;;;;11.48;6.25;;;;;;;8.89;44.13;102975.90;1840276;78;21079;-62
2022/03/14 08:20:29;;;;;;;15.15;7.75;;;;;;;9.65;43.60;102965.09;1840193;77;21083;-60
2022/03/14 08:23:00;;;;;;;14.40;7.20;;;;;;;11.12;42.29;102964.73;1823944;78;21028;-61
2022/03/14 08:25:34;;;;;;;12.90;7.17;;;;;;;11.31;41.97;102970.34;1810361;79;21490;-63
2022/03/14 08:28:03;;;;;;;13.80;7.25;;;;;;;10.54;42.22;102968.52;1810034;79;21051;-63
2022/03/14 08:30:32;;;;;;;12.53;7.33;;;;;;;9.66;42.23;102966.86;1812745;78;21046;-62
2022/03/14 08:33:01;;;;;;;14.43;7.22;;;;;;;9.04;43.18;102972.45;1824034;78;21423;-61
2022/03/14 08:35:30;;;;;;;14.33;7.03;;;;;;;8.59;43.31;102975.75;1840390;78;21450;-61
2022/03/14 08:37:59;;;;;;;13.10;7.37;;;;;;;8.12;43.65;102967.58;1819092;77;21200;-61
2022/03/14 08:40:28;;;;;;;14.20;7.60;;;;;;;7.56;43.91;102967.12;1839788;77;21071;-63
2022/03/14 08:42:58;;;;;;;17.40;8.28;;;;;;;7.08;44.60;102971.87;1850347;77;21059;-61
2022/03/14 08:45:27;;;;;;;17.10;7.50;;;;;;;6.70;45.28;102967.07;1850319;77;21568;-61
2022/03/14 08:47:56;;;;;;;15.75;7.17;;;;;;;6.38;45.75;102971.42;1850235;77;21538;-59
2022/03/14 08:50:25;;;;;;;14.60;7.72;;;;;;;6.23;46.13;102969.46;1848250;77;21079;-60
2022/03/14 08:52:54;;;;;;;14.70;6.53;;;;;;;6.93;45.89;102965.62;1838430;77;21140;-60
2022/03/14 08:55:22;;;;;;;14.68;6.97;;;;;;;7.64;44.85;102959.77;1832648;77;21246;-60
2022/03/14 08:57:51;;;;;;;10.60;5.62;;;;;;;7.99;44.09;102961.80;1837509;77;21125;-60
2022/03/14 09:00:21;;;;;;;15.05;7.90;;;;;;;7.99;44.23;102959.18;1834838;77;21062;-61
2022/03/14 09:03:10;;;;;;;14.85;7.65;;;;;;;8.18;44.02;102959.30;1819989;77;21083;-60
2022/03/14 09:05:38;;;;;;;13.43;6.33;;;;;;;9.90;42.23;102958.50;1844907;78;21467;-61
2022/03/14 09:08:07;;;;;;;12.90;6.03;;;;;;;11.58;40.33;102952.13;1849796;77;21136;-60
2022/03/14 09:10:37;;;;;;;12.30;7.15;;;;;;;12.06;39.92;102950.84;1859652;77;21022;-60
2022/03/14 09:13:06;;;;;;;15.63;7.80;;;;;;;11.44;39.64;102955.30;1859621;77;21070;-60
2022/03/14 09:15:36;;;;;;;13.80;7.65;;;;;;;11.85;39.42;102950.58;1859753;76;21496;-60
2022/03/14 09:18:05;;;;;;;10.45;6.12;;;;;;;11.05;40.38;102949.41;1859495;77;21100;-60
2022/03/14 09:20:37;;;;;;;12.75;7.62;;;;;;;9.95;41.68;102950.17;1859727;77;21492;-62
2022/03/14 09:23:04;;;;;;;13.98;8.35;;;;;;;8.84;42.02;102953.98;1859447;77;21125;-61
2022/03/14 09:25:33;;;;;;;12.37;6.72;;;;;;;8.06;42.94;102949.17;1859653;77;21128;-63
2022/03/14 09:28:03;;;;;;;11.83;6.85;;;;;;;7.51;43.14;102946.12;1859836;77;21546;-62
2022/03/14 09:30:32;;;;;;;12.88;7.42;;;;;;;7.01;43.63;102947.36;1859559;77;21426;-64
2022/03/14 09:33:01;;;;;;;12.15;6.55;;;;;;;6.57;44.02;102951.20;1843108;77;21562;-63
2022/03/14 09:35:30;;;;;;;12.65;6.60;;;;;;;6.29;44.82;102946.43;1825811;78;21041;-66
2022/03/14 09:37:59;;;;;;;12.78;6.78;;;;;;;6.13;44.76;102952.76;1827823;78;21565;-63
2022/03/14 09:40:30;;;;;;;15.68;8.15;;;;;;;5.92;44.96;102949.77;1821927;78;21524;-62
2022/03/14 09:43:00;;;;;;;14.40;7.15;;;;;;;5.85;45.54;102959.71;1822476;78;21144;-63
2022/03/14 09:45:30;;;;;;;13.45;7.62;;;;;;;5.80;45.86;102952.64;1830530;76;21700;-61
2022/03/14 09:48:01;;;;;;;13.80;7.78;;;;;;;5.65;45.90;102947.17;1832699;76;21503;-62
2022/03/14 09:50:32;;;;;;;15.68;6.25;;;;;;;5.51;46.01;102944.75;1843662;78;21052;-63
2022/03/14 09:53:06;;;;;;;15.38;7.87;;;;;;;5.45;46.32;102945.95;1839947;78;21049;-61
2022/03/14 09:55:41;;;;;;;13.80;7.97;;;;;;;5.46;46.54;102943.38;1836773;76;21640;-63
2022/03/14 09:58:10;;;;;;;13.40;6.17;;;;;;;5.49;46.90;102934.70;1836160;76;21112;-60
2022/03/14 10:01:00;;;;;;;15.60;8.43;;;;;;;5.41;47.54;102935.45;1832448;78;21045;-61
2022/03/14 10:03:29;;;;;;;14.70;7.20;;;;;;;5.46;47.43;102935.95;1869274;75;21219;-61
2022/03/14 10:05:58;;;;;;;12.70;6.42;;;;;;;5.51;47.21;102930.38;1863231;76;21074;-61
2022/03/14 10:08:26;;;;;;;16.75;8.13;;;;;;;5.53;47.22;102923.03;1868949;76;21018;-61
2022/03/14 10:10:55;;;;;;;14.47;7.80;;;;;;;5.65;47.20;102924.09;1860491;76;21018;-61
2022/03/14 10:13:25;;;;;;;12.68;7.05;;;;;;;5.76;47.29;102923.39;1860006;76;21045;-61
2022/03/14 10:15:54;;;;;;;13.98;7.42;;;;;;;5.89;46.95;102922.29;1865693;76;21117;-62
2022/03/14 10:18:22;;;;;;;18.65;7.87;;;;;;;5.96;46.90;102915.03;1877108;75;21129;-61
2022/03/14 10:21:05;;;;;;;10.90;6.80;;;;;;;6.17;47.19;102912.70;1897164;74;21617;-60
2022/03/14 10:23:35;;;;;;;15.83;7.17;;;;;;;6.49;46.57;102916.61;1894115;76;21046;-60
2022/03/14 10:26:06;;;;;;;14.80;7.55;;;;;;;6.79;45.73;102903.44;1894071;75;21140;-62
2022/03/14 10:28:38;;;;;;;11.95;5.55;;;;;;;6.99;45.57;102908.91;1894332;75;21013;-60
2022/03/14 10:31:07;;;;;;;12.58;7.10;;;;;;;7.35;45.23;102904.02;1894127;76;21112;-62
2022/03/14 10:33:36;;;;;;;15.32;7.55;;;;;;;7.27;44.74;102903.53;1894095;76;21018;-63
2022/03/14 10:36:06;;;;;;;15.05;8.80;;;;;;;7.19;45.15;102901.25;1894173;76;21441;-63
2022/03/14 10:38:45;;;;;;;16.00;7.42;;;;;;;7.20;45.22;102903.02;1894193;75;21100;-60
2022/03/14 10:41:15;;;;;;;12.10;7.35;;;;;;;7.14;45.13;102903.40;1909896;74;21053;-61
2022/03/14 10:43:44;;;;;;;8.83;6.53;;;;;;;7.00;45.46;102893.64;1912414;75;21033;-60
2022/03/14 10:46:13;;;;;;;13.88;7.90;;;;;;;6.88;45.05;102897.89;1891001;75;21030;-60
2022/03/14 10:48:45;;;;;;;8.60;5.72;;;;;;;7.02;45.30;102894.09;1890441;76;21497;-60
2022/03/14 10:51:15;;;;;;;13.08;6.87;;;;;;;7.14;44.75;102894.23;1890581;75;21026;-60
2022/03/14 10:53:48;;;;;;;14.13;6.97;;;;;;;6.98;44.01;102896.24;1890512;76;21029;-60
2022/03/14 10:56:17;;;;;;;13.48;7.58;;;;;;;6.86;43.79;102897.00;1890482;75;21163;-60
2022/03/14 10:58:46;;;;;;;12.80;6.75;;;;;;;6.70;43.80;102893.77;1890504;76;21030;-60
2022/03/14 11:01:15;;;;;;;13.45;6.62;;;;;;;6.75;43.59;102897.28;1890434;76;21103;-59
2022/03/14 11:03:46;;;;;;;14.33;6.80;;;;;;;7.21;43.53;102887.31;1890339;75;21043;-60
2022/03/14 11:06:19;;;;;;;13.03;7.22;;;;;;;7.58;43.04;102887.63;1890498;76;21108;-60
2022/03/14 11:08:51;;;;;;;15.13;7.62;;;;;;;7.78;42.67;102881.64;1890566;76;21097;-60
2022/03/14 11:11:23;;;;;;;11.00;6.92;;;;;;;7.83;42.64;102879.93;1890440;75;21175;-60
2022/03/14 11:13:55;;;;;;;12.70;6.08;;;;;;;7.59;42.32;102877.57;1890574;76;21129;-60
2022/03/14 11:16:34;;;;;;;11.30;6.35;;;;;;;7.31;42.46;102876.03;1890493;76;21033;-60
2022/03/14 11:19:02;;;;;;;13.93;5.65;;;;;;;6.96;42.46;102876.58;1889973;75;21562;-61
2022/03/14 11:21:33;;;;;;;14.15;6.75;;;;;;;6.65;42.88;102874.50;1890470;75;21500;-60
2022/03/14 11:24:02;;;;;;;13.13;6.40;;;;;;;6.45;43.07;102876.88;1890401;76;21058;-60
2022/03/14 11:26:32;;;;;;;14.58;8.28;;;;;;;6.52;43.28;102878.70;1890461;75;21037;-61
2022/03/14 11:29:01;;;;;;;13.78;7.53;;;;;;;6.61;43.54;102877.95;1890437;76;21092;-61